sensor_id;sensor_type;location;lat;lon;timestamp;P1;durP1;ratioP1;P2;durP2;ratioP2
21503;SDS011;10913;51.992;9.228;2022-09-01T00:01:17;0.82;;;0.82;;
21503;SDS011;10913;51.992;9.228;2022-09-01T00:03:49;0.80;;;0.80;;
21503;SDS011;10913;51.992;9.228;2022-09-01T00:06:17;2.08;;;0.90;;
21503;SDS011;10913;51.992;9.228;2022-09-01T00:08:53;0.70;;;0.70;;
21503;SDS011;10913;51.992;9.228;2022-09-01T00:11:21;0.98;;;0.90;;
21503;SDS011;10913;51.992;9.228;2022-09-01T00:13:49;1.25;;;0.90;;
21503;SDS011;10913;51.992;9.228;2022-09-01T00:16:16;0.60;;;0.60;;
21503;SDS011;10913;51.992;9.228;2022-09-01T00:18:43;0.70;;;0.70;;
21503;SDS011;10913;51.992;9.228;2022-09-01T00:21:14;2.45;;;0.95;;
21503;SDS011;10913;51.992;9.228;2022-09-01T00:23:41;0.80;;;0.80;;
21503;SDS011;10913;51.992;9.228;2022-09-01T00:26:06;1.08;;;0.88;;
21503;SDS011;10913;51.992;9.228;2022-09-01T00:28:32;0.98;;;0.85;;
21503;SDS011;10913;51.992;9.228;2022-09-01T00:30:58;0.80;;;0.80;;
21503;SDS011;10913;51.992;9.228;2022-09-01T00:33:24;0.90;;;0.90;;
21503;SDS011;10913;51.992;9.228;2022-09-01T00:35:50;0.90;;;0.90;;
21503;SDS011;10913;51.992;9.228;2022-09-01T00:38:16;1.17;;;0.88;;
21503;SDS011;10913;51.992;9.228;2022-09-01T00:40:41;1.25;;;0.90;;
21503;SDS011;10913;51.992;9.228;2022-09-01T00:43:14;1.10;;;0.90;;
21503;SDS011;10913;51.992;9.228;2022-09-01T00:46:00;1.02;;;0.90;;
21503;SDS011;10913;51.992;9.228;2022-09-01T00:48:26;1.52;;;0.98;;
21503;SDS011;10913;51.992;9.228;2022-09-01T00:50:52;1.50;;;0.90;;
21503;SDS011;10913;51.992;9.228;2022-09-01T00:53:18;0.80;;;0.80;;
21503;SDS011;10913;51.992;9.228;2022-09-01T00:55:43;1.90;;;1.02;;
21503;SDS011;10913;51.992;9.228;2022-09-01T00:58:08;1.58;;;1.13;;
21503;SDS011;10913;51.992;9.228;2022-09-01T01:00:35;0.98;;;0.90;;
21503;SDS011;10913;51.992;9.228;2022-09-01T01:03:05;1.65;;;0.98;;
21503;SDS011;10913;51.992;9.228;2022-09-01T01:05:33;2.35;;;0.90;;
21503;SDS011;10913;51.992;9.228;2022-09-01T01:08:03;0.98;;;0.98;;
21503;SDS011;10913;51.992;9.228;2022-09-01T01:10:32;1.20;;;0.90;;
21503;SDS011;10913;51.992;9.228;2022-09-01T01:13:00;0.80;;;0.80;;
21503;SDS011;10913;51.992;9.228;2022-09-01T01:15:28;1.33;;;0.95;;
21503;SDS011;10913;51.992;9.228;2022-09-01T01:17:54;1.02;;;0.93;;
21503;SDS011;10913;51.992;9.228;2022-09-01T01:20:21;0.90;;;0.80;;
21503;SDS011;10913;51.992;9.228;2022-09-01T01:26:01;1.75;;;0.90;;
21503;SDS011;10913;51.992;9.228;2022-09-01T01:28:30;1.48;;;0.93;;
21503;SDS011;10913;51.992;9.228;2022-09-01T01:31:00;1.17;;;0.90;;
21503;SDS011;10913;51.992;9.228;2022-09-01T01:33:38;0.80;;;0.80;;
21503;SDS011;10913;51.992;9.228;2022-09-01T01:36:13;1.15;;;0.77;;
21503;SDS011;10913;51.992;9.228;2022-09-01T01:38:40;1.05;;;0.85;;
21503;SDS011;10913;51.992;9.228;2022-09-01T01:41:11;0.90;;;0.90;;
21503;SDS011;10913;51.992;9.228;2022-09-01T01:43:38;2.90;;;1.00;;
21503;SDS011;10913;51.992;9.228;2022-09-01T01:46:05;0.73;;;0.73;;
21503;SDS011;10913;51.992;9.228;2022-09-01T01:48:33;0.85;;;0.85;;
21503;SDS011;10913;51.992;9.228;2022-09-01T01:51:02;0.90;;;0.90;;
21503;SDS011;10913;51.992;9.228;2022-09-01T01:53:28;0.93;;;0.90;;
21503;SDS011;10913;51.992;9.228;2022-09-01T01:55:54;0.98;;;0.95;;
21503;SDS011;10913;51.992;9.228;2022-09-01T01:58:21;0.88;;;0.88;;
21503;SDS011;10913;51.992;9.228;2022-09-01T02:00:49;1.00;;;0.98;;
21503;SDS011;10913;51.992;9.228;2022-09-01T02:03:17;0.98;;;0.93;;
21503;SDS011;10913;51.992;9.228;2022-09-01T02:05:46;1.92;;;1.10;;
21503;SDS011;10913;51.992;9.228;2022-09-01T02:08:13;2.08;;;1.00;;
21503;SDS011;10913;51.992;9.228;2022-09-01T02:10:43;1.27;;;1.17;;
21503;SDS011;10913;51.992;9.228;2022-09-01T02:13:11;1.88;;;1.10;;
21503;SDS011;10913;51.992;9.228;2022-09-01T02:15:41;1.25;;;0.98;;
21503;SDS011;10913;51.992;9.228;2022-09-01T02:18:16;1.10;;;1.00;;
21503;SDS011;10913;51.992;9.228;2022-09-01T02:20:46;1.85;;;1.00;;
21503;SDS011;10913;51.992;9.228;2022-09-01T02:23:13;1.80;;;1.00;;
21503;SDS011;10913;51.992;9.228;2022-09-01T02:25:43;1.23;;;0.90;;
21503;SDS011;10913;51.992;9.228;2022-09-01T02:28:13;1.33;;;0.80;;
21503;SDS011;10913;51.992;9.228;2022-09-01T02:30:43;0.88;;;0.80;;
21503;SDS011;10913;51.992;9.228;2022-09-01T02:33:11;1.15;;;1.00;;
21503;SDS011;10913;51.992;9.228;2022-09-01T02:35:42;0.90;;;0.90;;
21503;SDS011;10913;51.992;9.228;2022-09-01T02:38:08;1.95;;;1.23;;
21503;SDS011;10913;51.992;9.228;2022-09-01T02:40:33;1.50;;;1.10;;
21503;SDS011;10913;51.992;9.228;2022-09-01T02:42:59;1.20;;;1.00;;
21503;SDS011;10913;51.992;9.228;2022-09-01T02:45:28;1.02;;;0.82;;
21503;SDS011;10913;51.992;9.228;2022-09-01T02:47:54;0.90;;;0.90;;
21503;SDS011;10913;51.992;9.228;2022-09-01T02:50:21;0.90;;;0.90;;
21503;SDS011;10913;51.992;9.228;2022-09-01T02:52:48;1.00;;;0.90;;
21503;SDS011;10913;51.992;9.228;2022-09-01T02:55:17;0.90;;;0.90;;
21503;SDS011;10913;51.992;9.228;2022-09-01T02:57:46;1.40;;;1.13;;
21503;SDS011;10913;51.992;9.228;2022-09-01T03:00:13;2.17;;;1.02;;
21503;SDS011;10913;51.992;9.228;2022-09-01T03:02:52;1.35;;;1.10;;
21503;SDS011;10913;51.992;9.228;2022-09-01T03:05:21;1.27;;;1.17;;
21503;SDS011;10913;51.992;9.228;2022-09-01T03:07:55;1.13;;;0.88;;
21503;SDS011;10913;51.992;9.228;2022-09-01T03:10:24;1.45;;;1.10;;
21503;SDS011;10913;51.992;9.228;2022-09-01T03:12:56;1.35;;;0.98;;
21503;SDS011;10913;51.992;9.228;2022-09-01T03:15:21;1.90;;;1.08;;
21503;SDS011;10913;51.992;9.228;2022-09-01T03:17:47;1.17;;;1.08;;
21503;SDS011;10913;51.992;9.228;2022-09-01T03:20:13;0.90;;;0.90;;
21503;SDS011;10913;51.992;9.228;2022-09-01T03:22:39;1.08;;;0.98;;
21503;SDS011;10913;51.992;9.228;2022-09-01T03:25:04;0.90;;;0.80;;
21503;SDS011;10913;51.992;9.228;2022-09-01T03:27:30;1.25;;;1.05;;
21503;SDS011;10913;51.992;9.228;2022-09-01T03:29:55;1.33;;;1.17;;
21503;SDS011;10913;51.992;9.228;2022-09-01T03:32:21;1.30;;;1.10;;
21503;SDS011;10913;51.992;9.228;2022-09-01T03:34:46;1.85;;;1.05;;
21503;SDS011;10913;51.992;9.228;2022-09-01T03:37:11;1.30;;;1.20;;
21503;SDS011;10913;51.992;9.228;2022-09-01T03:39:37;1.17;;;1.02;;
21503;SDS011;10913;51.992;9.228;2022-09-01T03:42:03;1.75;;;1.00;;
21503;SDS011;10913;51.992;9.228;2022-09-01T03:44:29;1.52;;;1.00;;
21503;SDS011;10913;51.992;9.228;2022-09-01T03:46:54;1.83;;;1.00;;
21503;SDS011;10913;51.992;9.228;2022-09-01T03:49:22;1.60;;;1.10;;
21503;SDS011;10913;51.992;9.228;2022-09-01T03:51:49;1.08;;;1.00;;
21503;SDS011;10913;51.992;9.228;2022-09-01T03:54:17;2.35;;;1.13;;
21503;SDS011;10913;51.992;9.228;2022-09-01T03:56:42;1.38;;;1.10;;
21503;SDS011;10913;51.992;9.228;2022-09-01T03:59:09;1.20;;;1.02;;
21503;SDS011;10913;51.992;9.228;2022-09-01T04:01:40;1.60;;;1.20;;
21503;SDS011;10913;51.992;9.228;2022-09-01T04:04:08;2.25;;;1.23;;
21503;SDS011;10913;51.992;9.228;2022-09-01T04:06:38;1.10;;;1.00;;
21503;SDS011;10913;51.992;9.228;2022-09-01T04:09:04;1.85;;;1.20;;
21503;SDS011;10913;51.992;9.228;2022-09-01T04:11:29;1.85;;;1.10;;
21503;SDS011;10913;51.992;9.228;2022-09-01T04:13:56;1.35;;;1.08;;
21503;SDS011;10913;51.992;9.228;2022-09-01T04:19:11;1.92;;;1.50;;
21503;SDS011;10913;51.992;9.228;2022-09-01T04:21:45;2.50;;;1.53;;
21503;SDS011;10913;51.992;9.228;2022-09-01T04:24:11;3.60;;;1.40;;
21503;SDS011;10913;51.992;9.228;2022-09-01T04:26:39;1.63;;;1.30;;
21503;SDS011;10913;51.992;9.228;2022-09-01T04:29:05;1.90;;;1.02;;
21503;SDS011;10913;51.992;9.228;2022-09-01T04:31:33;2.60;;;1.35;;
21503;SDS011;10913;51.992;9.228;2022-09-01T04:34:01;2.05;;;1.30;;
21503;SDS011;10913;51.992;9.228;2022-09-01T04:36:27;1.63;;;1.15;;
21503;SDS011;10913;51.992;9.228;2022-09-01T04:38:57;2.50;;;1.20;;
21503;SDS011;10913;51.992;9.228;2022-09-01T04:41:27;1.40;;;1.30;;
21503;SDS011;10913;51.992;9.228;2022-09-01T04:43:56;1.05;;;0.88;;
21503;SDS011;10913;51.992;9.228;2022-09-01T04:46:25;3.05;;;1.30;;
21503;SDS011;10913;51.992;9.228;2022-09-01T04:48:56;1.20;;;1.10;;
21503;SDS011;10913;51.992;9.228;2022-09-01T04:51:24;1.25;;;1.10;;
21503;SDS011;10913;51.992;9.228;2022-09-01T04:53:53;2.80;;;1.23;;
21503;SDS011;10913;51.992;9.228;2022-09-01T04:56:20;2.30;;;1.33;;
21503;SDS011;10913;51.992;9.228;2022-09-01T04:58:47;1.92;;;1.27;;
21503;SDS011;10913;51.992;9.228;2022-09-01T05:01:14;2.15;;;1.55;;
21503;SDS011;10913;51.992;9.228;2022-09-01T05:03:45;2.15;;;1.60;;
21503;SDS011;10913;51.992;9.228;2022-09-01T05:06:16;1.95;;;1.40;;
21503;SDS011;10913;51.992;9.228;2022-09-01T05:08:43;1.85;;;1.40;;
21503;SDS011;10913;51.992;9.228;2022-09-01T05:11:12;2.70;;;1.70;;
21503;SDS011;10913;51.992;9.228;2022-09-01T05:13:45;1.85;;;1.52;;
21503;SDS011;10913;51.992;9.228;2022-09-01T05:16:13;2.13;;;1.63;;
21503;SDS011;10913;51.992;9.228;2022-09-01T05:18:43;3.72;;;1.60;;
21503;SDS011;10913;51.992;9.228;2022-09-01T05:21:12;2.13;;;1.30;;
21503;SDS011;10913;51.992;9.228;2022-09-01T05:23:40;2.10;;;1.33;;
21503;SDS011;10913;51.992;9.228;2022-09-01T05:26:13;1.50;;;1.30;;
21503;SDS011;10913;51.992;9.228;2022-09-01T05:28:45;3.65;;;1.50;;
21503;SDS011;10913;51.992;9.228;2022-09-01T05:31:21;2.95;;;1.63;;
21503;SDS011;10913;51.992;9.228;2022-09-01T05:33:48;2.10;;;1.50;;
21503;SDS011;10913;51.992;9.228;2022-09-01T05:36:18;2.10;;;1.70;;
21503;SDS011;10913;51.992;9.228;2022-09-01T05:38:46;2.00;;;1.60;;
21503;SDS011;10913;51.992;9.228;2022-09-01T05:41:13;2.00;;;1.30;;
21503;SDS011;10913;51.992;9.228;2022-09-01T05:43:44;2.58;;;1.40;;
21503;SDS011;10913;51.992;9.228;2022-09-01T05:46:13;1.77;;;1.40;;
21503;SDS011;10913;51.992;9.228;2022-09-01T05:48:41;2.60;;;1.40;;
21503;SDS011;10913;51.992;9.228;2022-09-01T05:51:08;2.40;;;1.30;;
21503;SDS011;10913;51.992;9.228;2022-09-01T05:53:35;1.63;;;1.50;;
21503;SDS011;10913;51.992;9.228;2022-09-01T05:56:05;1.73;;;1.50;;
21503;SDS011;10913;51.992;9.228;2022-09-01T05:58:33;2.22;;;1.48;;
21503;SDS011;10913;51.992;9.228;2022-09-01T06:00:59;3.75;;;1.42;;
21503;SDS011;10913;51.992;9.228;2022-09-01T06:03:26;1.50;;;1.40;;
21503;SDS011;10913;51.992;9.228;2022-09-01T06:05:53;4.15;;;1.80;;
21503;SDS011;10913;51.992;9.228;2022-09-01T06:08:23;1.58;;;1.38;;
21503;SDS011;10913;51.992;9.228;2022-09-01T06:10:50;1.98;;;1.60;;
21503;SDS011;10913;51.992;9.228;2022-09-01T06:13:16;2.03;;;1.40;;
21503;SDS011;10913;51.992;9.228;2022-09-01T06:15:46;2.55;;;1.33;;
21503;SDS011;10913;51.992;9.228;2022-09-01T06:18:12;2.10;;;1.27;;
21503;SDS011;10913;51.992;9.228;2022-09-01T06:20:39;1.98;;;1.30;;
21503;SDS011;10913;51.992;9.228;2022-09-01T06:23:06;2.05;;;1.30;;
21503;SDS011;10913;51.992;9.228;2022-09-01T06:25:35;1.48;;;1.35;;
21503;SDS011;10913;51.992;9.228;2022-09-01T06:28:01;1.48;;;1.20;;
21503;SDS011;10913;51.992;9.228;2022-09-01T06:30:28;1.90;;;1.50;;
21503;SDS011;10913;51.992;9.228;2022-09-01T06:32:54;3.13;;;1.88;;
21503;SDS011;10913;51.992;9.228;2022-09-01T06:35:20;2.35;;;1.70;;
21503;SDS011;10913;51.992;9.228;2022-09-01T06:37:49;1.77;;;1.50;;
21503;SDS011;10913;51.992;9.228;2022-09-01T06:40:14;2.13;;;1.63;;
21503;SDS011;10913;51.992;9.228;2022-09-01T06:42:44;2.78;;;1.83;;
21503;SDS011;10913;51.992;9.228;2022-09-01T06:45:15;3.92;;;1.90;;
21503;SDS011;10913;51.992;9.228;2022-09-01T06:47:42;3.22;;;1.70;;
21503;SDS011;10913;51.992;9.228;2022-09-01T06:50:16;2.90;;;1.60;;
21503;SDS011;10913;51.992;9.228;2022-09-01T06:52:46;2.63;;;1.60;;
21503;SDS011;10913;51.992;9.228;2022-09-01T06:55:14;4.20;;;1.60;;
21503;SDS011;10913;51.992;9.228;2022-09-01T06:57:40;1.42;;;1.33;;
21503;SDS011;10913;51.992;9.228;2022-09-01T07:00:11;4.90;;;1.65;;
21503;SDS011;10913;51.992;9.228;2022-09-01T07:02:51;2.05;;;1.48;;
21503;SDS011;10913;51.992;9.228;2022-09-01T07:05:18;1.50;;;1.40;;
21503;SDS011;10913;51.992;9.228;2022-09-01T07:07:45;4.15;;;1.50;;
21503;SDS011;10913;51.992;9.228;2022-09-01T07:10:16;1.27;;;1.17;;
21503;SDS011;10913;51.992;9.228;2022-09-01T07:12:47;1.40;;;1.10;;
21503;SDS011;10913;51.992;9.228;2022-09-01T07:15:15;1.65;;;1.02;;
21503;SDS011;10913;51.992;9.228;2022-09-01T07:17:45;1.80;;;1.10;;
21503;SDS011;10913;51.992;9.228;2022-09-01T07:20:17;2.22;;;1.00;;
21503;SDS011;10913;51.992;9.228;2022-09-01T07:22:48;2.22;;;1.20;;
21503;SDS011;10913;51.992;9.228;2022-09-01T07:25:15;3.08;;;0.90;;
21503;SDS011;10913;51.992;9.228;2022-09-01T07:27:42;1.92;;;1.08;;
21503;SDS011;10913;51.992;9.228;2022-09-01T07:30:13;1.63;;;0.90;;
21503;SDS011;10913;51.992;9.228;2022-09-01T07:32:39;1.30;;;1.05;;
21503;SDS011;10913;51.992;9.228;2022-09-01T07:35:08;2.08;;;1.20;;
21503;SDS011;10913;51.992;9.228;2022-09-01T07:37:34;1.40;;;1.05;;
21503;SDS011;10913;51.992;9.228;2022-09-01T07:40:05;2.35;;;1.15;;
21503;SDS011;10913;51.992;9.228;2022-09-01T07:42:33;1.23;;;1.13;;
21503;SDS011;10913;51.992;9.228;2022-09-01T07:44:58;1.48;;;0.98;;
21503;SDS011;10913;51.992;9.228;2022-09-01T07:47:24;2.03;;;1.00;;
21503;SDS011;10913;51.992;9.228;2022-09-01T07:49:53;1.40;;;0.93;;
21503;SDS011;10913;51.992;9.228;2022-09-01T07:52:19;0.85;;;0.85;;
21503;SDS011;10913;51.992;9.228;2022-09-01T07:54:45;1.02;;;0.93;;
21503;SDS011;10913;51.992;9.228;2022-09-01T07:57:10;1.27;;;0.80;;
21503;SDS011;10913;51.992;9.228;2022-09-01T07:59:35;1.17;;;1.08;;
21503;SDS011;10913;51.992;9.228;2022-09-01T08:02:01;1.55;;;0.88;;
21503;SDS011;10913;51.992;9.228;2022-09-01T08:04:29;2.75;;;0.93;;
21503;SDS011;10913;51.992;9.228;2022-09-01T08:06:55;0.95;;;0.80;;
21503;SDS011;10913;51.992;9.228;2022-09-01T08:09:21;1.00;;;0.90;;
21503;SDS011;10913;51.992;9.228;2022-09-01T08:11:47;1.67;;;0.90;;
21503;SDS011;10913;51.992;9.228;2022-09-01T08:14:12;1.00;;;0.90;;
21503;SDS011;10913;51.992;9.228;2022-09-01T08:16:38;1.98;;;1.10;;
21503;SDS011;10913;51.992;9.228;2022-09-01T08:19:03;1.95;;;0.90;;
21503;SDS011;10913;51.992;9.228;2022-09-01T08:21:29;1.38;;;0.88;;
21503;SDS011;10913;51.992;9.228;2022-09-01T08:23:55;1.80;;;1.20;;
21503;SDS011;10913;51.992;9.228;2022-09-01T08:26:21;1.65;;;1.00;;
21503;SDS011;10913;51.992;9.228;2022-09-01T08:28:49;2.45;;;1.10;;
21503;SDS011;10913;51.992;9.228;2022-09-01T08:31:16;1.70;;;0.98;;
21503;SDS011;10913;51.992;9.228;2022-09-01T08:33:43;2.20;;;1.00;;
21503;SDS011;10913;51.992;9.228;2022-09-01T08:36:12;1.75;;;1.17;;
21503;SDS011;10913;51.992;9.228;2022-09-01T08:38:38;3.28;;;1.13;;
21503;SDS011;10913;51.992;9.228;2022-09-01T08:41:05;1.20;;;1.10;;
21503;SDS011;10913;51.992;9.228;2022-09-01T08:44:04;1.33;;;0.90;;
21503;SDS011;10913;51.992;9.228;2022-09-01T08:49:25;2.33;;;1.20;;
21503;SDS011;10913;51.992;9.228;2022-09-01T08:51:52;2.08;;;1.02;;
21503;SDS011;10913;51.992;9.228;2022-09-01T08:54:24;1.15;;;1.05;;
21503;SDS011;10913;51.992;9.228;2022-09-01T08:56:53;2.08;;;1.10;;
21503;SDS011;10913;51.992;9.228;2022-09-01T08:59:25;2.60;;;1.02;;
21503;SDS011;10913;51.992;9.228;2022-09-01T09:06:59;2.47;;;1.20;;
21503;SDS011;10913;51.992;9.228;2022-09-01T09:09:36;1.02;;;0.98;;
21503;SDS011;10913;51.992;9.228;2022-09-01T09:14:58;1.90;;;1.15;;
21503;SDS011;10913;51.992;9.228;2022-09-01T09:17:35;1.98;;;1.20;;
21503;SDS011;10913;51.992;9.228;2022-09-01T09:20:11;3.10;;;1.42;;
21503;SDS011;10913;51.992;9.228;2022-09-01T09:22:37;1.17;;;1.00;;
21503;SDS011;10913;51.992;9.228;2022-09-01T09:25:06;2.55;;;1.15;;
21503;SDS011;10913;51.992;9.228;2022-09-01T09:27:38;2.42;;;1.20;;
21503;SDS011;10913;51.992;9.228;2022-09-01T09:30:06;1.98;;;1.23;;
21503;SDS011;10913;51.992;9.228;2022-09-01T09:37:45;2.03;;;1.10;;
21503;SDS011;10913;51.992;9.228;2022-09-01T09:40:13;1.48;;;1.30;;
21503;SDS011;10913;51.992;9.228;2022-09-01T09:42:57;2.30;;;1.10;;
21503;SDS011;10913;51.992;9.228;2022-09-01T09:45:36;1.13;;;0.90;;
21503;SDS011;10913;51.992;9.228;2022-09-01T09:48:04;3.83;;;1.40;;
21503;SDS011;10913;51.992;9.228;2022-09-01T09:50:40;1.90;;;1.02;;
21503;SDS011;10913;51.992;9.228;2022-09-01T09:56:16;1.95;;;1.50;;
21503;SDS011;10913;51.992;9.228;2022-09-01T09:58:40;1.52;;;1.10;;
21503;SDS011;10913;51.992;9.228;2022-09-01T10:03:40;1.65;;;0.95;;
21503;SDS011;10913;51.992;9.228;2022-09-01T10:06:11;1.50;;;1.02;;
21503;SDS011;10913;51.992;9.228;2022-09-01T10:08:41;0.98;;;0.90;;
21503;SDS011;10913;51.992;9.228;2022-09-01T10:11:26;6.15;;;1.23;;
21503;SDS011;10913;51.992;9.228;2022-09-01T10:13:55;1.88;;;1.10;;
21503;SDS011;10913;51.992;9.228;2022-09-01T10:16:22;1.05;;;0.95;;
21503;SDS011;10913;51.992;9.228;2022-09-01T10:18:52;2.60;;;1.10;;
21503;SDS011;10913;51.992;9.228;2022-09-01T10:21:25;0.90;;;0.90;;
21503;SDS011;10913;51.992;9.228;2022-09-01T10:23:57;1.35;;;1.10;;
21503;SDS011;10913;51.992;9.228;2022-09-01T10:26:41;1.20;;;1.10;;
21503;SDS011;10913;51.992;9.228;2022-09-01T10:29:13;3.33;;;1.30;;
21503;SDS011;10913;51.992;9.228;2022-09-01T10:31:43;2.45;;;1.17;;
21503;SDS011;10913;51.992;9.228;2022-09-01T10:34:10;5.75;;;1.20;;
21503;SDS011;10913;51.992;9.228;2022-09-01T10:36:41;3.42;;;1.00;;
21503;SDS011;10913;51.992;9.228;2022-09-01T10:39:13;2.47;;;1.15;;
21503;SDS011;10913;51.992;9.228;2022-09-01T10:44:07;3.85;;;1.33;;
21503;SDS011;10913;51.992;9.228;2022-09-01T10:49:00;2.13;;;1.00;;
21503;SDS011;10913;51.992;9.228;2022-09-01T10:53:55;2.70;;;1.30;;
21503;SDS011;10913;51.992;9.228;2022-09-01T11:02:02;1.77;;;1.10;;
21503;SDS011;10913;51.992;9.228;2022-09-01T11:09:06;1.45;;;0.80;;
21503;SDS011;10913;51.992;9.228;2022-09-01T11:14:51;1.95;;;1.17;;
21503;SDS011;10913;51.992;9.228;2022-09-01T11:25:48;0.93;;;0.88;;
21503;SDS011;10913;51.992;9.228;2022-09-01T11:39:21;0.95;;;0.80;;
21503;SDS011;10913;51.992;9.228;2022-09-01T11:47:17;1.55;;;0.88;;
21503;SDS011;10913;51.992;9.228;2022-09-01T11:52:16;0.90;;;0.70;;
21503;SDS011;10913;51.992;9.228;2022-09-01T11:54:43;3.42;;;0.93;;
21503;SDS011;10913;51.992;9.228;2022-09-01T11:57:16;2.83;;;0.80;;
21503;SDS011;10913;51.992;9.228;2022-09-01T11:59:43;2.15;;;0.80;;
21503;SDS011;10913;51.992;9.228;2022-09-01T12:02:15;1.10;;;0.70;;
21503;SDS011;10913;51.992;9.228;2022-09-01T12:04:47;0.90;;;0.60;;
21503;SDS011;10913;51.992;9.228;2022-09-01T12:07:23;1.13;;;0.73;;
21503;SDS011;10913;51.992;9.228;2022-09-01T12:09:59;2.08;;;0.70;;
21503;SDS011;10913;51.992;9.228;2022-09-01T12:12:34;1.02;;;0.90;;
21503;SDS011;10913;51.992;9.228;2022-09-01T12:15:03;2.08;;;0.80;;
21503;SDS011;10913;51.992;9.228;2022-09-01T12:17:48;0.73;;;0.73;;
21503;SDS011;10913;51.992;9.228;2022-09-01T12:20:17;2.35;;;0.70;;
21503;SDS011;10913;51.992;9.228;2022-09-01T12:22:43;0.75;;;0.75;;
21503;SDS011;10913;51.992;9.228;2022-09-01T12:25:16;0.80;;;0.80;;
21503;SDS011;10913;51.992;9.228;2022-09-01T12:27:44;1.05;;;0.80;;
21503;SDS011;10913;51.992;9.228;2022-09-01T12:30:10;2.10;;;0.90;;
21503;SDS011;10913;51.992;9.228;2022-09-01T12:32:36;1.90;;;1.05;;
21503;SDS011;10913;51.992;9.228;2022-09-01T12:35:03;3.08;;;0.90;;
21503;SDS011;10913;51.992;9.228;2022-09-01T12:37:37;0.55;;;0.55;;
21503;SDS011;10913;51.992;9.228;2022-09-01T12:40:03;1.15;;;0.90;;
21503;SDS011;10913;51.992;9.228;2022-09-01T12:42:30;2.03;;;0.90;;
21503;SDS011;10913;51.992;9.228;2022-09-01T12:44:57;0.88;;;0.80;;
21503;SDS011;10913;51.992;9.228;2022-09-01T12:50:43;1.02;;;0.80;;
21503;SDS011;10913;51.992;9.228;2022-09-01T12:52:47;2.42;;;0.75;;
21503;SDS011;10913;51.992;9.228;2022-09-01T12:55:26;0.82;;;0.82;;
21503;SDS011;10913;51.992;9.228;2022-09-01T12:57:54;0.82;;;0.80;;
21503;SDS011;10913;51.992;9.228;2022-09-01T13:02:49;1.48;;;0.95;;
21503;SDS011;10913;51.992;9.228;2022-09-01T13:08:08;3.63;;;0.80;;
21503;SDS011;10913;51.992;9.228;2022-09-01T13:10:43;1.13;;;0.90;;
21503;SDS011;10913;51.992;9.228;2022-09-01T13:13:11;1.10;;;0.80;;
21503;SDS011;10913;51.992;9.228;2022-09-01T13:15:38;1.23;;;0.80;;
21503;SDS011;10913;51.992;9.228;2022-09-01T13:18:05;3.53;;;0.70;;
21503;SDS011;10913;51.992;9.228;2022-09-01T13:20:30;0.85;;;0.80;;
21503;SDS011;10913;51.992;9.228;2022-09-01T13:22:56;1.08;;;0.82;;
21503;SDS011;10913;51.992;9.228;2022-09-01T13:25:22;1.23;;;0.90;;
21503;SDS011;10913;51.992;9.228;2022-09-01T13:27:48;0.77;;;0.77;;
21503;SDS011;10913;51.992;9.228;2022-09-01T13:30:17;2.08;;;0.90;;
21503;SDS011;10913;51.992;9.228;2022-09-01T13:32:45;0.90;;;0.90;;
21503;SDS011;10913;51.992;9.228;2022-09-01T13:35:12;1.27;;;1.00;;
21503;SDS011;10913;51.992;9.228;2022-09-01T13:37:40;1.17;;;0.88;;
21503;SDS011;10913;51.992;9.228;2022-09-01T13:40:06;0.90;;;0.80;;
21503;SDS011;10913;51.992;9.228;2022-09-01T13:42:38;1.92;;;1.00;;
21503;SDS011;10913;51.992;9.228;2022-09-01T13:45:03;1.30;;;0.88;;
21503;SDS011;10913;51.992;9.228;2022-09-01T13:47:30;1.48;;;0.80;;
21503;SDS011;10913;51.992;9.228;2022-09-01T13:49:55;2.30;;;0.90;;
21503;SDS011;10913;51.992;9.228;2022-09-01T13:52:21;1.95;;;0.68;;
21503;SDS011;10913;51.992;9.228;2022-09-01T13:54:47;1.02;;;0.60;;
21503;SDS011;10913;51.992;9.228;2022-09-01T13:57:12;2.55;;;0.98;;
21503;SDS011;10913;51.992;9.228;2022-09-01T13:59:39;0.85;;;0.70;;
21503;SDS011;10913;51.992;9.228;2022-09-01T14:02:06;1.08;;;0.80;;
21503;SDS011;10913;51.992;9.228;2022-09-01T14:04:31;3.33;;;1.00;;
21503;SDS011;10913;51.992;9.228;2022-09-01T14:06:57;0.80;;;0.80;;
21503;SDS011;10913;51.992;9.228;2022-09-01T14:09:23;1.60;;;0.70;;
21503;SDS011;10913;51.992;9.228;2022-09-01T14:11:51;1.35;;;0.90;;
21503;SDS011;10913;51.992;9.228;2022-09-01T14:14:17;0.90;;;0.70;;
21503;SDS011;10913;51.992;9.228;2022-09-01T14:16:44;1.95;;;0.70;;
21503;SDS011;10913;51.992;9.228;2022-09-01T14:19:10;1.20;;;1.10;;
21503;SDS011;10913;51.992;9.228;2022-09-01T14:21:36;1.35;;;0.75;;
21503;SDS011;10913;51.992;9.228;2022-09-01T14:24:02;2.20;;;0.90;;
21503;SDS011;10913;51.992;9.228;2022-09-01T14:26:29;3.22;;;0.82;;
21503;SDS011;10913;51.992;9.228;2022-09-01T14:28:54;1.10;;;1.00;;
21503;SDS011;10913;51.992;9.228;2022-09-01T14:31:20;1.20;;;1.10;;
21503;SDS011;10913;51.992;9.228;2022-09-01T14:33:46;1.13;;;1.05;;
21503;SDS011;10913;51.992;9.228;2022-09-01T14:36:21;2.58;;;0.80;;
21503;SDS011;10913;51.992;9.228;2022-09-01T14:38:48;0.80;;;0.80;;
21503;SDS011;10913;51.992;9.228;2022-09-01T14:41:15;0.93;;;0.70;;
21503;SDS011;10913;51.992;9.228;2022-09-01T14:43:47;2.15;;;0.93;;
21503;SDS011;10913;51.992;9.228;2022-09-01T14:46:13;0.77;;;0.68;;
21503;SDS011;10913;51.992;9.228;2022-09-01T14:48:39;0.75;;;0.70;;
21503;SDS011;10913;51.992;9.228;2022-09-01T14:51:06;0.93;;;0.80;;
21503;SDS011;10913;51.992;9.228;2022-09-01T14:53:32;0.70;;;0.70;;
21503;SDS011;10913;51.992;9.228;2022-09-01T14:55:58;1.88;;;0.80;;
21503;SDS011;10913;51.992;9.228;2022-09-01T14:58:25;1.70;;;0.82;;
21503;SDS011;10913;51.992;9.228;2022-09-01T15:00:55;1.35;;;0.93;;
21503;SDS011;10913;51.992;9.228;2022-09-01T15:03:21;1.92;;;1.02;;
21503;SDS011;10913;51.992;9.228;2022-09-01T15:05:49;3.00;;;0.80;;
21503;SDS011;10913;51.992;9.228;2022-09-01T15:08:15;1.00;;;0.63;;
21503;SDS011;10913;51.992;9.228;2022-09-01T15:10:41;2.92;;;0.70;;
21503;SDS011;10913;51.992;9.228;2022-09-01T15:13:06;0.73;;;0.70;;
21503;SDS011;10913;51.992;9.228;2022-09-01T15:15:32;0.60;;;0.60;;
21503;SDS011;10913;51.992;9.228;2022-09-01T15:17:59;1.13;;;0.68;;
21503;SDS011;10913;51.992;9.228;2022-09-01T15:20:25;1.70;;;0.70;;
21503;SDS011;10913;51.992;9.228;2022-09-01T15:23:09;1.00;;;0.70;;
21503;SDS011;10913;51.992;9.228;2022-09-01T15:25:40;0.95;;;0.85;;
21503;SDS011;10913;51.992;9.228;2022-09-01T15:28:06;0.50;;;0.50;;
21503;SDS011;10913;51.992;9.228;2022-09-01T15:30:32;1.58;;;0.65;;
21503;SDS011;10913;51.992;9.228;2022-09-01T15:32:59;1.35;;;0.60;;
21503;SDS011;10913;51.992;9.228;2022-09-01T15:35:28;0.70;;;0.52;;
21503;SDS011;10913;51.992;9.228;2022-09-01T15:37:54;1.35;;;0.60;;
21503;SDS011;10913;51.992;9.228;2022-09-01T15:40:21;4.88;;;0.85;;
21503;SDS011;10913;51.992;9.228;2022-09-01T15:42:47;0.65;;;0.65;;
21503;SDS011;10913;51.992;9.228;2022-09-01T15:45:14;0.60;;;0.60;;
21503;SDS011;10913;51.992;9.228;2022-09-01T15:47:41;0.60;;;0.60;;
21503;SDS011;10913;51.992;9.228;2022-09-01T15:50:08;0.60;;;0.57;;
21503;SDS011;10913;51.992;9.228;2022-09-01T15:55:25;0.80;;;0.68;;
21503;SDS011;10913;51.992;9.228;2022-09-01T15:57:53;0.50;;;0.50;;
21503;SDS011;10913;51.992;9.228;2022-09-01T16:00:19;0.80;;;0.75;;
21503;SDS011;10913;51.992;9.228;2022-09-01T16:02:45;0.70;;;0.70;;
21503;SDS011;10913;51.992;9.228;2022-09-01T16:05:11;1.00;;;0.68;;
21503;SDS011;10913;51.992;9.228;2022-09-01T16:07:36;1.20;;;0.70;;
21503;SDS011;10913;51.992;9.228;2022-09-01T16:10:03;0.70;;;0.70;;
21503;SDS011;10913;51.992;9.228;2022-09-01T16:12:35;0.85;;;0.80;;
21503;SDS011;10913;51.992;9.228;2022-09-01T16:15:00;2.15;;;0.85;;
21503;SDS011;10913;51.992;9.228;2022-09-01T16:17:38;2.17;;;0.80;;
21503;SDS011;10913;51.992;9.228;2022-09-01T16:20:15;2.05;;;0.80;;
21503;SDS011;10913;51.992;9.228;2022-09-01T16:22:47;2.25;;;0.80;;